sensor_id;sensor_type;location;lat;lon;timestamp;temperature;humidity
10278;DHT22;5184;51.376;7.148;2023-11-19T04:31:30;12.00;99.90
10278;DHT22;5184;51.376;7.148;2023-11-19T04:33:58;12.00;99.90
10278;DHT22;5184;51.376;7.148;2023-11-19T04:36:25;12.00;99.90
10278;DHT22;5184;51.376;7.148;2023-11-19T04:38:53;12.00;99.90
10278;DHT22;5184;51.376;7.148;2023-11-19T04:41:19;12.00;99.90
10278;DHT22;5184;51.376;7.148;2023-11-19T04:43:46;12.00;99.90
10278;DHT22;5184;51.376;7.148;2023-11-19T04:46:13;12.00;99.90
10278;DHT22;5184;51.376;7.148;2023-11-19T04:48:39;11.90;99.90
10278;DHT22;5184;51.376;7.148;2023-11-19T04:51:06;11.90;99.90
10278;DHT22;5184;51.376;7.148;2023-11-19T04:53:32;12.00;99.90
10278;DHT22;5184;51.376;7.148;2023-11-19T04:55:59;11.90;99.90
10278;DHT22;5184;51.376;7.148;2023-11-19T04:58:28;11.90;99.90
10278;DHT22;5184;51.376;7.148;2023-11-19T05:00:53;11.90;99.90
10278;DHT22;5184;51.376;7.148;2023-11-19T05:03:20;11.90;99.90
10278;DHT22;5184;51.376;7.148;2023-11-19T05:05:46;11.90;99.90
10278;DHT22;5184;51.376;7.148;2023-11-19T05:08:13;11.80;99.90
10278;DHT22;5184;51.376;7.148;2023-11-19T05:10:41;11.90;99.90
10278;DHT22;5184;51.376;7.148;2023-11-19T05:13:07;11.80;99.90
10278;DHT22;5184;51.376;7.148;2023-11-19T05:15:34;11.90;99.90
10278;DHT22;5184;51.376;7.148;2023-11-19T05:18:01;12.00;99.90
10278;DHT22;5184;51.376;7.148;2023-11-19T05:20:28;12.00;99.90
10278;DHT22;5184;51.376;7.148;2023-11-19T05:22:55;12.10;99.90
10278;DHT22;5184;51.376;7.148;2023-11-19T05:25:23;12.10;99.90
10278;DHT22;5184;51.376;7.148;2023-11-19T05:27:49;12.10;99.90
10278;DHT22;5184;51.376;7.148;2023-11-19T05:30:16;12.00;99.90
10278;DHT22;5184;51.376;7.148;2023-11-19T05:32:43;12.00;99.90
10278;DHT22;5184;51.376;7.148;2023-11-19T05:35:10;12.00;99.90
10278;DHT22;5184;51.376;7.148;2023-11-19T05:37:38;11.90;99.90
10278;DHT22;5184;51.376;7.148;2023-11-19T05:40:06;12.00;99.90
10278;DHT22;5184;51.376;7.148;2023-11-19T05:42:33;12.00;99.90
10278;DHT22;5184;51.376;7.148;2023-11-19T05:45:00;12.00;99.90
10278;DHT22;5184;51.376;7.148;2023-11-19T05:47:27;11.90;99.90
10278;DHT22;5184;51.376;7.148;2023-11-19T05:49:54;11.90;99.90
10278;DHT22;5184;51.376;7.148;2023-11-19T05:52:21;11.90;99.90
10278;DHT22;5184;51.376;7.148;2023-11-19T05:54:47;12.00;99.90
10278;DHT22;5184;51.376;7.148;2023-11-19T05:57:15;12.00;99.90
10278;DHT22;5184;51.376;7.148;2023-11-19T05:59:42;12.00;99.90
10278;DHT22;5184;51.376;7.148;2023-11-19T06:02:09;12.00;99.90
10278;DHT22;5184;51.376;7.148;2023-11-19T06:04:35;12.00;99.90
10278;DHT22;5184;51.376;7.148;2023-11-19T06:07:02;11.90;99.90
10278;DHT22;5184;51.376;7.148;2023-11-19T06:09:28;11.90;99.90
10278;DHT22;5184;51.376;7.148;2023-11-19T06:11:55;11.90;99.90
10278;DHT22;5184;51.376;7.148;2023-11-19T06:14:22;11.90;99.90
10278;DHT22;5184;51.376;7.148;2023-11-19T06:16:49;11.90;99.90
10278;DHT22;5184;51.376;7.148;2023-11-19T06:19:15;11.90;99.90
10278;DHT22;5184;51.376;7.148;2023-11-19T06:21:42;11.80;99.90
10278;DHT22;5184;51.376;7.148;2023-11-19T06:24:09;11.80;99.90
10278;DHT22;5184;51.376;7.148;2023-11-19T06:26:37;11.80;99.90
10278;DHT22;5184;51.376;7.148;2023-11-19T06:29:04;11.80;99.90
10278;DHT22;5184;51.376;7.148;2023-11-19T06:31:31;11.80;99.90
10278;DHT22;5184;51.376;7.148;2023-11-19T06:33:58;11.80;99.90
10278;DHT22;5184;51.376;7.148;2023-11-19T06:36:25;11.80;99.90
10278;DHT22;5184;51.376;7.148;2023-11-19T06:41:18;11.80;99.90
10278;DHT22;5184;51.376;7.148;2023-11-19T06:43:46;11.70;99.90
10278;DHT22;5184;51.376;7.148;2023-11-19T06:46:15;11.70;99.90
10278;DHT22;5184;51.376;7.148;2023-11-19T06:48:41;11.70;99.90
10278;DHT22;5184;51.376;7.148;2023-11-19T06:51:07;11.70;99.90
10278;DHT22;5184;51.376;7.148;2023-11-19T06:53:34;11.70;99.90
10278;DHT22;5184;51.376;7.148;2023-11-19T06:56:00;11.60;99.90
10278;DHT22;5184;51.376;7.148;2023-11-19T06:58:27;11.60;99.90
10278;DHT22;5184;51.376;7.148;2023-11-19T07:00:54;11.60;99.90
10278;DHT22;5184;51.376;7.148;2023-11-19T07:03:21;11.60;99.90
10278;DHT22;5184;51.376;7.148;2023-11-19T07:05:49;11.50;99.90
10278;DHT22;5184;51.376;7.148;2023-11-19T07:08:16;11.50;99.90
10278;DHT22;5184;51.376;7.148;2023-11-19T07:10:44;11.40;99.90
10278;DHT22;5184;51.376;7.148;2023-11-19T07:13:11;11.40;99.90
10278;DHT22;5184;51.376;7.148;2023-11-19T07:15:38;11.40;99.90
10278;DHT22;5184;51.376;7.148;2023-11-19T07:18:04;11.40;99.90
10278;DHT22;5184;51.376;7.148;2023-11-19T07:20:31;11.30;99.90
10278;DHT22;5184;51.376;7.148;2023-11-19T07:22:58;11.30;99.90
10278;DHT22;5184;51.376;7.148;2023-11-19T07:25:25;11.30;99.90
10278;DHT22;5184;51.376;7.148;2023-11-19T07:27:52;11.20;99.90
10278;DHT22;5184;51.376;7.148;2023-11-19T07:30:19;11.20;99.90
10278;DHT22;5184;51.376;7.148;2023-11-19T07:32:45;11.20;99.90
10278;DHT22;5184;51.376;7.148;2023-11-19T07:35:13;11.20;99.90
10278;DHT22;5184;51.376;7.148;2023-11-19T07:37:39;11.20;99.90
10278;DHT22;5184;51.376;7.148;2023-11-19T07:40:07;11.20;99.90
10278;DHT22;5184;51.376;7.148;2023-11-19T07:42:33;11.10;99.90
10278;DHT22;5184;51.376;7.148;2023-11-19T07:45:01;11.10;99.90
10278;DHT22;5184;51.376;7.148;2023-11-19T07:47:28;11.00;99.90
10278;DHT22;5184;51.376;7.148;2023-11-19T07:49:55;11.00;99.90
10278;DHT22;5184;51.376;7.148;2023-11-19T07:52:21;11.00;99.90
10278;DHT22;5184;51.376;7.148;2023-11-19T07:54:48;11.00;99.90
10278;DHT22;5184;51.376;7.148;2023-11-19T07:57:15;11.10;99.90
10278;DHT22;5184;51.376;7.148;2023-11-19T07:59:42;11.10;99.90
10278;DHT22;5184;51.376;7.148;2023-11-19T08:02:10;11.10;99.90
10278;DHT22;5184;51.376;7.148;2023-11-19T08:04:36;11.00;99.90
10278;DHT22;5184;51.376;7.148;2023-11-19T08:07:03;11.00;99.90
10278;DHT22;5184;51.376;7.148;2023-11-19T08:09:30;11.00;99.90
10278;DHT22;5184;51.376;7.148;2023-11-19T08:11:57;11.00;99.90
10278;DHT22;5184;51.376;7.148;2023-11-19T08:14:24;11.10;99.90
10278;DHT22;5184;51.376;7.148;2023-11-19T08:16:51;11.00;99.90
10278;DHT22;5184;51.376;7.148;2023-11-19T08:19:18;11.10;99.90
10278;DHT22;5184;51.376;7.148;2023-11-19T08:21:44;11.10;99.90
10278;DHT22;5184;51.376;7.148;2023-11-19T08:24:11;11.00;99.90
10278;DHT22;5184;51.376;7.148;2023-11-19T08:26:37;11.10;99.90
10278;DHT22;5184;51.376;7.148;2023-11-19T08:29:05;11.20;99.90
10278;DHT22;5184;51.376;7.148;2023-11-19T08:31:31;11.20;99.90
10278;DHT22;5184;51.376;7.148;2023-11-19T08:33:58;11.30;99.90
10278;DHT22;5184;51.376;7.148;2023-11-19T08:36:25;11.40;99.90
10278;DHT22;5184;51.376;7.148;2023-11-19T08:38:52;11.40;99.90
10278;DHT22;5184;51.376;7.148;2023-11-19T08:41:19;11.40;99.90
10278;DHT22;5184;51.376;7.148;2023-11-19T08:43:45;11.40;99.90
10278;DHT22;5184;51.376;7.148;2023-11-19T08:46:13;11.50;99.90
10278;DHT22;5184;51.376;7.148;2023-11-19T08:48:40;11.50;99.90
10278;DHT22;5184;51.376;7.148;2023-11-19T08:51:07;11.60;99.90
10278;DHT22;5184;51.376;7.148;2023-11-19T08:53:34;11.50;99.90
10278;DHT22;5184;51.376;7.148;2023-11-19T08:56:00;11.60;99.90
10278;DHT22;5184;51.376;7.148;2023-11-19T08:58:27;11.60;99.90
10278;DHT22;5184;51.376;7.148;2023-11-19T09:00:54;11.50;99.90
10278;DHT22;5184;51.376;7.148;2023-11-19T09:03:22;11.40;99.90
10278;DHT22;5184;51.376;7.148;2023-11-19T09:05:48;11.40;99.90
10278;DHT22;5184;51.376;7.148;2023-11-19T09:08:15;11.50;99.90
10278;DHT22;5184;51.376;7.148;2023-11-19T09:10:42;11.60;99.90
10278;DHT22;5184;51.376;7.148;2023-11-19T09:13:08;11.60;99.90
10278;DHT22;5184;51.376;7.148;2023-11-19T09:15:35;11.60;99.90
10278;DHT22;5184;51.376;7.148;2023-11-19T09:18:02;11.60;99.90
10278;DHT22;5184;51.376;7.148;2023-11-19T09:20:29;11.50;99.90
10278;DHT22;5184;51.376;7.148;2023-11-19T09:22:55;11.60;99.90
10278;DHT22;5184;51.376;7.148;2023-11-19T09:25:22;11.60;99.90
10278;DHT22;5184;51.376;7.148;2023-11-19T09:27:49;11.80;99.90
10278;DHT22;5184;51.376;7.148;2023-11-19T09:30:17;11.90;99.90
10278;DHT22;5184;51.376;7.148;2023-11-19T09:32:44;11.90;99.90
10278;DHT22;5184;51.376;7.148;2023-11-19T09:35:11;11.90;99.90
10278;DHT22;5184;51.376;7.148;2023-11-19T09:37:37;12.00;99.90
10278;DHT22;5184;51.376;7.148;2023-11-19T09:40:04;12.00;99.90
10278;DHT22;5184;51.376;7.148;2023-11-19T09:42:32;12.00;99.90
10278;DHT22;5184;51.376;7.148;2023-11-19T09:44:58;12.10;99.90
10278;DHT22;5184;51.376;7.148;2023-11-19T09:47:25;12.00;99.90
10278;DHT22;5184;51.376;7.148;2023-11-19T09:49:52;12.00;99.90
10278;DHT22;5184;51.376;7.148;2023-11-19T09:52:20;11.90;99.90
10278;DHT22;5184;51.376;7.148;2023-11-19T09:54:46;11.90;99.90
10278;DHT22;5184;51.376;7.148;2023-11-19T09:57:13;11.90;99.90
10278;DHT22;5184;51.376;7.148;2023-11-19T09:59:40;12.00;99.90
10278;DHT22;5184;51.376;7.148;2023-11-19T10:02:07;11.90;99.90
10278;DHT22;5184;51.376;7.148;2023-11-19T10:04:34;12.00;99.90
10278;DHT22;5184;51.376;7.148;2023-11-19T10:07:02;12.00;99.90
10278;DHT22;5184;51.376;7.148;2023-11-19T10:09:28;11.90;99.90
10278;DHT22;5184;51.376;7.148;2023-11-19T10:11:55;12.00;99.90
10278;DHT22;5184;51.376;7.148;2023-11-19T10:14:23;12.00;99.90
10278;DHT22;5184;51.376;7.148;2023-11-19T10:16:49;12.00;99.90
10278;DHT22;5184;51.376;7.148;2023-11-19T10:19:19;12.00;99.90
10278;DHT22;5184;51.376;7.148;2023-11-19T10:21:45;12.10;99.90
10278;DHT22;5184;51.376;7.148;2023-11-19T10:24:12;12.10;99.90
10278;DHT22;5184;51.376;7.148;2023-11-19T10:26:39;12.20;99.90
10278;DHT22;5184;51.376;7.148;2023-11-19T10:29:06;12.20;99.90
10278;DHT22;5184;51.376;7.148;2023-11-19T10:31:34;12.20;99.90
10278;DHT22;5184;51.376;7.148;2023-11-19T10:34:00;12.20;99.90
10278;DHT22;5184;51.376;7.148;2023-11-19T10:36:37;12.20;99.90
10278;DHT22;5184;51.376;7.148;2023-11-19T10:39:04;12.20;99.90
10278;DHT22;5184;51.376;7.148;2023-11-19T10:41:32;12.20;99.90
10278;DHT22;5184;51.376;7.148;2023-11-19T10:43:59;12.20;99.90
10278;DHT22;5184;51.376;7.148;2023-11-19T10:46:37;12.20;99.90
10278;DHT22;5184;51.376;7.148;2023-11-19T10:49:03;12.30;99.90
10278;DHT22;5184;51.376;7.148;2023-11-19T10:51:29;12.30;99.90
10278;DHT22;5184;51.376;7.148;2023-11-19T10:53:57;12.30;99.90
10278;DHT22;5184;51.376;7.148;2023-11-19T10:56:25;12.30;99.90
10278;DHT22;5184;51.376;7.148;2023-11-19T10:58:51;12.30;99.90
10278;DHT22;5184;51.376;7.148;2023-11-19T11:01:19;12.30;99.90
10278;DHT22;5184;51.376;7.148;2023-11-19T11:03:44;12.30;99.90
10278;DHT22;5184;51.376;7.148;2023-11-19T11:06:11;12.30;99.90
10278;DHT22;5184;51.376;7.148;2023-11-19T11:08:39;12.40;99.90
10278;DHT22;5184;51.376;7.148;2023-11-19T11:11:07;12.40;99.90
10278;DHT22;5184;51.376;7.148;2023-11-19T11:13:33;12.40;99.90
10278;DHT22;5184;51.376;7.148;2023-11-19T11:15:59;12.50;99.90
10278;DHT22;5184;51.376;7.148;2023-11-19T11:18:26;12.60;99.90
10278;DHT22;5184;51.376;7.148;2023-11-19T11:20:59;12.70;99.90
10278;DHT22;5184;51.376;7.148;2023-11-19T11:23:36;12.70;99.90
10278;DHT22;5184;51.376;7.148;2023-11-19T11:29:04;12.60;99.90
10278;DHT22;5184;51.376;7.148;2023-11-19T11:34:44;12.60;99.90
10278;DHT22;5184;51.376;7.148;2023-11-19T11:37:26;12.70;99.90
10278;DHT22;5184;51.376;7.148;2023-11-19T11:39:51;12.60;99.90
10278;DHT22;5184;51.376;7.148;2023-11-19T11:42:33;12.60;99.90
10278;DHT22;5184;51.376;7.148;2023-11-19T11:45:03;12.60;99.90
10278;DHT22;5184;51.376;7.148;2023-11-19T11:48:22;12.60;99.90
10278;DHT22;5184;51.376;7.148;2023-11-19T11:50:32;12.60;99.90
10278;DHT22;5184;51.376;7.148;2023-11-19T11:53:15;12.60;99.90
10278;DHT22;5184;51.376;7.148;2023-11-19T11:55:55;12.60;99.90
10278;DHT22;5184;51.376;7.148;2023-11-19T11:58:26;12.60;99.90
10278;DHT22;5184;51.376;7.148;2023-11-19T12:00:52;12.60;99.90
10278;DHT22;5184;51.376;7.148;2023-11-19T12:03:21;12.70;99.90
10278;DHT22;5184;51.376;7.148;2023-11-19T12:05:48;12.70;99.90
10278;DHT22;5184;51.376;7.148;2023-11-19T12:08:15;12.70;99.90
10278;DHT22;5184;51.376;7.148;2023-11-19T12:10:49;12.70;99.90
10278;DHT22;5184;51.376;7.148;2023-11-19T12:13:16;12.70;99.90
10278;DHT22;5184;51.376;7.148;2023-11-19T12:18:36;12.60;99.90
10278;DHT22;5184;51.376;7.148;2023-11-19T12:21:03;12.70;99.90
10278;DHT22;5184;51.376;7.148;2023-11-19T12:23:30;12.70;99.90
10278;DHT22;5184;51.376;7.148;2023-11-19T12:25:57;12.90;99.90
10278;DHT22;5184;51.376;7.148;2023-11-19T12:28:24;12.90;99.90
10278;DHT22;5184;51.376;7.148;2023-11-19T12:30:50;12.90;99.90
10278;DHT22;5184;51.376;7.148;2023-11-19T12:33:18;12.90;99.90
10278;DHT22;5184;51.376;7.148;2023-11-19T12:35:45;12.90;99.90
10278;DHT22;5184;51.376;7.148;2023-11-19T12:38:18;12.90;99.90
10278;DHT22;5184;51.376;7.148;2023-11-19T12:40:44;13.00;99.90
10278;DHT22;5184;51.376;7.148;2023-11-19T12:43:11;13.10;99.90
10278;DHT22;5184;51.376;7.148;2023-11-19T12:45:38;13.10;99.90
10278;DHT22;5184;51.376;7.148;2023-11-19T12:48:05;13.10;99.90
10278;DHT22;5184;51.376;7.148;2023-11-19T12:53:21;13.00;99.90
10278;DHT22;5184;51.376;7.148;2023-11-19T12:55:48;12.90;99.90
10278;DHT22;5184;51.376;7.148;2023-11-19T12:58:28;12.80;99.90
10278;DHT22;5184;51.376;7.148;2023-11-19T13:01:02;12.70;99.90
10278;DHT22;5184;51.376;7.148;2023-11-19T13:03:34;12.70;99.90
10278;DHT22;5184;51.376;7.148;2023-11-19T13:06:02;12.70;99.90
10278;DHT22;5184;51.376;7.148;2023-11-19T13:08:28;12.60;99.90
10278;DHT22;5184;51.376;7.148;2023-11-19T13:10:55;12.40;99.90
10278;DHT22;5184;51.376;7.148;2023-11-19T13:13:22;12.30;99.90
10278;DHT22;5184;51.376;7.148;2023-11-19T13:15:49;12.20;99.90
10278;DHT22;5184;51.376;7.148;2023-11-19T13:18:16;12.00;99.90
10278;DHT22;5184;51.376;7.148;2023-11-19T13:20:42;11.80;99.90
10278;DHT22;5184;51.376;7.148;2023-11-19T13:23:09;11.70;99.90
10278;DHT22;5184;51.376;7.148;2023-11-19T13:25:35;11.50;99.90
10278;DHT22;5184;51.376;7.148;2023-11-19T13:28:02;11.20;99.90
10278;DHT22;5184;51.376;7.148;2023-11-19T13:30:29;11.00;99.90
10278;DHT22;5184;51.376;7.148;2023-11-19T13:32:57;11.00;99.90
10278;DHT22;5184;51.376;7.148;2023-11-19T13:35:24;11.00;99.90
10278;DHT22;5184;51.376;7.148;2023-11-19T13:37:51;11.00;99.90
10278;DHT22;5184;51.376;7.148;2023-11-19T13:40:18;11.00;99.90
10278;DHT22;5184;51.376;7.148;2023-11-19T13:42:44;11.00;99.90
10278;DHT22;5184;51.376;7.148;2023-11-19T13:45:11;11.10;99.90
10278;DHT22;5184;51.376;7.148;2023-11-19T13:47:41;11.30;99.90
10278;DHT22;5184;51.376;7.148;2023-11-19T13:50:08;11.30;99.90
10278;DHT22;5184;51.376;7.148;2023-11-19T13:52:34;11.40;99.90
10278;DHT22;5184;51.376;7.148;2023-11-19T13:55:00;11.50;99.90
10278;DHT22;5184;51.376;7.148;2023-11-19T13:57:27;11.60;99.90
10278;DHT22;5184;51.376;7.148;2023-11-19T13:59:53;11.70;99.90
10278;DHT22;5184;51.376;7.148;2023-11-19T14:02:21;11.70;99.90
10278;DHT22;5184;51.376;7.148;2023-11-19T14:04:48;11.70;99.90
10278;DHT22;5184;51.376;7.148;2023-11-19T14:07:15;11.70;99.90
10278;DHT22;5184;51.376;7.148;2023-11-19T14:09:42;11.70;99.90
10278;DHT22;5184;51.376;7.148;2023-11-19T14:12:09;11.60;99.90
10278;DHT22;5184;51.376;7.148;2023-11-19T14:14:36;11.60;99.90
10278;DHT22;5184;51.376;7.148;2023-11-19T14:17:03;11.60;99.90
10278;DHT22;5184;51.376;7.148;2023-11-19T14:19:31;11.60;99.90
10278;DHT22;5184;51.376;7.148;2023-11-19T14:21:57;11.60;99.90
10278;DHT22;5184;51.376;7.148;2023-11-19T14:24:24;11.60;99.90
10278;DHT22;5184;51.376;7.148;2023-11-19T14:26:51;11.60;99.90
10278;DHT22;5184;51.376;7.148;2023-11-19T14:29:18;11.70;99.90
10278;DHT22;5184;51.376;7.148;2023-11-19T14:31:45;11.60;99.90
10278;DHT22;5184;51.376;7.148;2023-11-19T14:34:12;11.60;99.90
10278;DHT22;5184;51.376;7.148;2023-11-19T14:36:38;11.60;99.90
10278;DHT22;5184;51.376;7.148;2023-11-19T14:39:05;11.50;99.90
10278;DHT22;5184;51.376;7.148;2023-11-19T14:41:32;11.40;99.90
10278;DHT22;5184;51.376;7.148;2023-11-19T14:43:58;11.30;99.90
10278;DHT22;5184;51.376;7.148;2023-11-19T14:46:26;11.30;99.90
10278;DHT22;5184;51.376;7.148;2023-11-19T14:48:52;11.30;99.90
10278;DHT22;5184;51.376;7.148;2023-11-19T14:51:19;11.30;99.90
10278;DHT22;5184;51.376;7.148;2023-11-19T14:53:46;11.30;99.90
10278;DHT22;5184;51.376;7.148;2023-11-19T14:56:13;11.30;99.90
10278;DHT22;5184;51.376;7.148;2023-11-19T14:58:40;11.30;99.90
10278;DHT22;5184;51.376;7.148;2023-11-19T15:01:11;11.20;99.90
10278;DHT22;5184;51.376;7.148;2023-11-19T15:03:34;11.10;99.90
10278;DHT22;5184;51.376;7.148;2023-11-19T15:06:01;11.10;99.90
10278;DHT22;5184;51.376;7.148;2023-11-19T15:08:27;11.10;99.90
10278;DHT22;5184;51.376;7.148;2023-11-19T15:10:55;10.90;99.90
10278;DHT22;5184;51.376;7.148;2023-11-19T15:13:22;10.80;99.90
10278;DHT22;5184;51.376;7.148;2023-11-19T15:15:49;10.80;99.90
10278;DHT22;5184;51.376;7.148;2023-11-19T15:18:16;10.80;99.90
10278;DHT22;5184;51.376;7.148;2023-11-19T15:20:43;10.70;99.90
10278;DHT22;5184;51.376;7.148;2023-11-19T15:23:09;10.70;99.90
10278;DHT22;5184;51.376;7.148;2023-11-19T15:25:36;10.70;99.90
10278;DHT22;5184;51.376;7.148;2023-11-19T15:28:04;10.70;99.90
10278;DHT22;5184;51.376;7.148;2023-11-19T15:30:30;10.70;99.90
10278;DHT22;5184;51.376;7.148;2023-11-19T15:32:57;10.70;99.90
10278;DHT22;5184;51.376;7.148;2023-11-19T15:35:24;10.70;99.90
10278;DHT22;5184;51.376;7.148;2023-11-19T15:37:51;10.70;99.90
10278;DHT22;5184;51.376;7.148;2023-11-19T15:40:18;10.60;99.90
10278;DHT22;5184;51.376;7.148;2023-11-19T15:42:45;10.60;99.90
10278;DHT22;5184;51.376;7.148;2023-11-19T15:45:12;10.60;99.90
10278;DHT22;5184;51.376;7.148;2023-11-19T15:47:38;10.60;99.90
10278;DHT22;5184;51.376;7.148;2023-11-19T15:50:06;10.50;99.90
10278;DHT22;5184;51.376;7.148;2023-11-19T15:52:33;10.50;99.90
10278;DHT22;5184;51.376;7.148;2023-11-19T15:55:00;10.50;99.90
10278;DHT22;5184;51.376;7.148;2023-11-19T15:57:26;10.50;99.90
10278;DHT22;5184;51.376;7.148;2023-11-19T15:59:53;10.60;99.90
10278;DHT22;5184;51.376;7.148;2023-11-19T16:02:19;10.60;99.90
10278;DHT22;5184;51.376;7.148;2023-11-19T16:04:47;10.70;99.90
10278;DHT22;5184;51.376;7.148;2023-11-19T16:07:14;10.60;99.90
10278;DHT22;5184;51.376;7.148;2023-11-19T16:09:41;10.60;99.90
10278;DHT22;5184;51.376;7.148;2023-11-19T16:12:08;10.70;99.90
10278;DHT22;5184;51.376;7.148;2023-11-19T16:14:36;10.60;99.90
10278;DHT22;5184;51.376;7.148;2023-11-19T16:17:03;10.60;99.90
10278;DHT22;5184;51.376;7.148;2023-11-19T16:19:30;10.70;99.90
10278;DHT22;5184;51.376;7.148;2023-11-19T16:21:57;10.70;99.90
10278;DHT22;5184;51.376;7.148;2023-11-19T16:24:24;10.70;99.90
10278;DHT22;5184;51.376;7.148;2023-11-19T16:26:51;10.70;99.90
10278;DHT22;5184;51.376;7.148;2023-11-19T16:29:18;10.70;99.90
10278;DHT22;5184;51.376;7.148;2023-11-19T16:31:45;10.70;99.90
10278;DHT22;5184;51.376;7.148;2023-11-19T16:34:11;10.70;99.90
10278;DHT22;5184;51.376;7.148;2023-11-19T16:36:38;10.70;99.90
10278;DHT22;5184;51.376;7.148;2023-11-19T16:39:04;10.70;99.90
10278;DHT22;5184;51.376;7.148;2023-11-19T16:41:32;10.60;99.90
10278;DHT22;5184;51.376;7.148;2023-11-19T16:43:59;10.60;99.90
10278;DHT22;5184;51.376;7.148;2023-11-19T16:46:27;10.60;99.90
10278;DHT22;5184;51.376;7.148;2023-11-19T16:48:54;10.50;99.90
10278;DHT22;5184;51.376;7.148;2023-11-19T16:51:23;10.60;99.90
10278;DHT22;5184;51.376;7.148;2023-11-19T16:53:49;10.60;99.90
10278;DHT22;5184;51.376;7.148;2023-11-19T16:56:16;10.60;99.90
10278;DHT22;5184;51.376;7.148;2023-11-19T16:58:43;10.60;99.90
10278;DHT22;5184;51.376;7.148;2023-11-19T17:01:11;10.50;99.90
10278;DHT22;5184;51.376;7.148;2023-11-19T17:03:38;10.50;99.90
10278;DHT22;5184;51.376;7.148;2023-11-19T17:06:05;10.50;99.90
10278;DHT22;5184;51.376;7.148;2023-11-19T17:08:32;10.60;99.90
10278;DHT22;5184;51.376;7.148;2023-11-19T17:10:59;10.60;99.90
10278;DHT22;5184;51.376;7.148;2023-11-19T17:13:25;10.50;99.90
10278;DHT22;5184;51.376;7.148;2023-11-19T17:15:52;10.50;99.90
10278;DHT22;5184;51.376;7.148;2023-11-19T17:18:19;10.60;99.90
10278;DHT22;5184;51.376;7.148;2023-11-19T17:20:47;10.50;99.90
10278;DHT22;5184;51.376;7.148;2023-11-19T17:23:14;10.50;99.90
10278;DHT22;5184;51.376;7.148;2023-11-19T17:25:40;10.50;99.90
10278;DHT22;5184;51.376;7.148;2023-11-19T17:28:07;10.50;99.90
10278;DHT22;5184;51.376;7.148;2023-11-19T17:30:34;10.50;99.90
10278;DHT22;5184;51.376;7.148;2023-11-19T17:33:01;10.60;99.90
10278;DHT22;5184;51.376;7.148;2023-11-19T17:35:28;10.60;99.90
10278;DHT22;5184;51.376;7.148;2023-11-19T17:37:54;10.60;99.90
10278;DHT22;5184;51.376;7.148;2023-11-19T17:40:21;10.60;99.90
10278;DHT22;5184;51.376;7.148;2023-11-19T17:42:47;10.60;99.90
10278;DHT22;5184;51.376;7.148;2023-11-19T17:45:14;10.60;99.90
10278;DHT22;5184;51.376;7.148;2023-11-19T17:47:41;10.50;99.90
10278;DHT22;5184;51.376;7.148;2023-11-19T17:50:08;10.50;99.90
10278;DHT22;5184;51.376;7.148;2023-11-19T17:52:36;10.40;99.90
10278;DHT22;5184;51.376;7.148;2023-11-19T17:55:03;10.30;99.90
10278;DHT22;5184;51.376;7.148;2023-11-19T17:57:30;10.30;99.90
10278;DHT22;5184;51.376;7.148;2023-11-19T17:59:57;10.30;99.90
10278;DHT22;5184;51.376;7.148;2023-11-19T18:02:23;10.20;99.90
10278;DHT22;5184;51.376;7.148;2023-11-19T18:04:50;10.20;99.90
10278;DHT22;5184;51.376;7.148;2023-11-19T18:07:17;10.20;99.90
10278;DHT22;5184;51.376;7.148;2023-11-19T18:09:45;10.10;99.90
10278;DHT22;5184;51.376;7.148;2023-11-19T18:12:11;10.10;99.90
10278;DHT22;5184;51.376;7.148;2023-11-19T18:14:39;10.10;99.90
10278;DHT22;5184;51.376;7.148;2023-11-19T18:17:06;10.10;99.90
10278;DHT22;5184;51.376;7.148;2023-11-19T18:19:33;10.10;99.90
10278;DHT22;5184;51.376;7.148;2023-11-19T18:21:59;10.10;99.90
10278;DHT22;5184;51.376;7.148;2023-11-19T18:24:26;10.10;99.90
10278;DHT22;5184;51.376;7.148;2023-11-19T18:26:53;9.90;99.90
10278;DHT22;5184;51.376;7.148;2023-11-19T18:29:20;10.10;99.90
10278;DHT22;5184;51.376;7.148;2023-11-19T18:31:48;10.10;99.90
10278;DHT22;5184;51.376;7.148;2023-11-19T18:34:14;10.10;99.90
10278;DHT22;5184;51.376;7.148;2023-11-19T18:36:41;10.10;99.90
10278;DHT22;5184;51.376;7.148;2023-11-19T18:39:08;10.10;99.90
10278;DHT22;5184;51.376;7.148;2023-11-19T18:41:36;10.10;99.90
10278;DHT22;5184;51.376;7.148;2023-11-19T18:44:02;10.00;99.90
10278;DHT22;5184;51.376;7.148;2023-11-19T18:46:29;10.00;99.90
10278;DHT22;5184;51.376;7.148;2023-11-19T18:48:56;10.00;99.90
10278;DHT22;5184;51.376;7.148;2023-11-19T18:51:23;10.00;99.90
10278;DHT22;5184;51.376;7.148;2023-11-19T18:53:50;10.00;99.90
10278;DHT22;5184;51.376;7.148;2023-11-19T18:56:16;10.00;99.90
10278;DHT22;5184;51.376;7.148;2023-11-19T18:58:44;10.00;99.90
10278;DHT22;5184;51.376;7.148;2023-11-19T19:01:11;10.00;99.90
10278;DHT22;5184;51.376;7.148;2023-11-19T19:03:39;10.00;99.90
10278;DHT22;5184;51.376;7.148;2023-11-19T19:06:05;9.90;99.90
10278;DHT22;5184;51.376;7.148;2023-11-19T19:08:32;10.00;99.90
10278;DHT22;5184;51.376;7.148;2023-11-19T19:10:59;9.90;99.90
10278;DHT22;5184;51.376;7.148;2023-11-19T19:13:25;9.90;99.90
10278;DHT22;5184;51.376;7.148;2023-11-19T19:15:52;9.90;99.90
10278;DHT22;5184;51.376;7.148;2023-11-19T19:18:19;9.90;99.90
10278;DHT22;5184;51.376;7.148;2023-11-19T19:20:47;9.90;99.90
10278;DHT22;5184;51.376;7.148;2023-11-19T19:23:15;9.90;99.90
10278;DHT22;5184;51.376;7.148;2023-11-19T19:25:42;9.90;99.90
10278;DHT22;5184;51.376;7.148;2023-11-19T19:28:09;9.90;99.90
10278;DHT22;5184;51.376;7.148;2023-11-19T19:30:35;9.90;99.90
10278;DHT22;5184;51.376;7.148;2023-11-19T19:33:02;9.90;99.90
10278;DHT22;5184;51.376;7.148;2023-11-19T19:35:28;9.90;99.90
10278;DHT22;5184;51.376;7.148;2023-11-19T19:37:55;9.90;99.90
10278;DHT22;5184;51.376;7.148;2023-11-19T19:40:22;9.90;99.90
10278;DHT22;5184;51.376;7.148;2023-11-19T19:42:48;9.90;99.90
10278;DHT22;5184;51.376;7.148;2023-11-19T19:45:16;10.00;99.90
10278;DHT22;5184;51.376;7.148;2023-11-19T19:47:43;10.00;99.90
10278;DHT22;5184;51.376;7.148;2023-11-19T19:50:09;9.90;99.90
10278;DHT22;5184;51.376;7.148;2023-11-19T19:52:36;9.90;99.90
10278;DHT22;5184;51.376;7.148;2023-11-19T19:55:03;10.00;99.90
10278;DHT22;5184;51.376;7.148;2023-11-19T19:57:30;10.00;99.90
10278;DHT22;5184;51.376;7.148;2023-11-19T19:59:57;10.00;99.90
10278;DHT22;5184;51.376;7.148;2023-11-19T20:02:24;9.90;99.90
10278;DHT22;5184;51.376;7.148;2023-11-19T20:04:52;9.90;99.90
10278;DHT22;5184;51.376;7.148;2023-11-19T20:07:19;9.90;99.90
10278;DHT22;5184;51.376;7.148;2023-11-19T20:09:46;9.90;99.90
10278;DHT22;5184;51.376;7.148;2023-11-19T20:12:12;10.00;99.90
10278;DHT22;5184;51.376;7.148;2023-11-19T20:14:39;9.90;99.90
10278;DHT22;5184;51.376;7.148;2023-11-19T20:17:06;10.00;99.90
10278;DHT22;5184;51.376;7.148;2023-11-19T20:19:32;9.90;99.90
10278;DHT22;5184;51.376;7.148;2023-11-19T20:21:59;9.90;99.90
10278;DHT22;5184;51.376;7.148;2023-11-19T20:24:27;9.90;99.90
10278;DHT22;5184;51.376;7.148;2023-11-19T20:26:55;10.00;99.90
10278;DHT22;5184;51.376;7.148;2023-11-19T20:29:22;9.90;99.90
10278;DHT22;5184;51.376;7.148;2023-11-19T20:31:49;9.90;99.90